sensor_id;sensor_type;location;lat;lon;timestamp;temperature;humidity
47414;DHT22;33163;0.000;0.000;2023-05-10T00:00:37;19.50;73.20
47414;DHT22;33163;0.000;0.000;2023-05-10T00:03:04;19.60;73.30
47414;DHT22;33163;0.000;0.000;2023-05-10T00:05:30;19.60;73.20
47414;DHT22;33163;0.000;0.000;2023-05-10T00:07:57;19.50;73.20
47414;DHT22;33163;0.000;0.000;2023-05-10T00:10:24;19.50;73.20
47414;DHT22;33163;0.000;0.000;2023-05-10T00:12:51;19.50;73.20
47414;DHT22;33163;0.000;0.000;2023-05-10T00:15:17;19.50;73.20
47414;DHT22;33163;0.000;0.000;2023-05-10T00:17:46;19.50;73.00
47414;DHT22;33163;0.000;0.000;2023-05-10T00:20:12;19.50;73.10
47414;DHT22;33163;0.000;0.000;2023-05-10T00:22:39;19.50;72.90
47414;DHT22;33163;0.000;0.000;2023-05-10T00:25:07;19.50;73.00
47414;DHT22;33163;0.000;0.000;2023-05-10T00:27:34;19.50;73.00
47414;DHT22;33163;0.000;0.000;2023-05-10T00:30:01;19.50;73.00
47414;DHT22;33163;0.000;0.000;2023-05-10T00:32:28;19.50;73.10
47414;DHT22;33163;0.000;0.000;2023-05-10T00:34:56;19.50;72.90
47414;DHT22;33163;0.000;0.000;2023-05-10T00:37:24;19.50;72.90
47414;DHT22;33163;0.000;0.000;2023-05-10T00:39:51;19.50;72.80
47414;DHT22;33163;0.000;0.000;2023-05-10T00:42:17;19.50;72.90
47414;DHT22;33163;0.000;0.000;2023-05-10T00:44:44;19.50;72.80
47414;DHT22;33163;0.000;0.000;2023-05-10T00:47:12;19.40;72.80
47414;DHT22;33163;0.000;0.000;2023-05-10T00:49:39;19.40;72.70
47414;DHT22;33163;0.000;0.000;2023-05-10T00:52:08;19.50;72.70
47414;DHT22;33163;0.000;0.000;2023-05-10T00:54:35;19.40;72.50
47414;DHT22;33163;0.000;0.000;2023-05-10T00:57:02;19.50;72.70
47414;DHT22;33163;0.000;0.000;2023-05-10T00:59:29;19.40;72.50
47414;DHT22;33163;0.000;0.000;2023-05-10T01:01:57;19.40;72.50
47414;DHT22;33163;0.000;0.000;2023-05-10T01:04:24;19.40;72.50
47414;DHT22;33163;0.000;0.000;2023-05-10T01:06:52;19.40;72.50
47414;DHT22;33163;0.000;0.000;2023-05-10T01:09:21;19.40;72.50
47414;DHT22;33163;0.000;0.000;2023-05-10T01:11:48;19.40;72.50
47414;DHT22;33163;0.000;0.000;2023-05-10T01:14:17;19.40;72.50
47414;DHT22;33163;0.000;0.000;2023-05-10T01:16:44;19.40;72.50
47414;DHT22;33163;0.000;0.000;2023-05-10T01:19:18;19.40;72.50
47414;DHT22;33163;0.000;0.000;2023-05-10T01:21:57;19.40;72.50
47414;DHT22;33163;0.000;0.000;2023-05-10T01:24:46;19.40;72.50
47414;DHT22;33163;0.000;0.000;2023-05-10T01:27:33;19.40;72.50
47414;DHT22;33163;0.000;0.000;2023-05-10T01:30:46;19.40;72.50
47414;DHT22;33163;0.000;0.000;2023-05-10T01:33:23;19.40;72.50
47414;DHT22;33163;0.000;0.000;2023-05-10T01:36:05;19.40;72.50
47414;DHT22;33163;0.000;0.000;2023-05-10T01:38:40;19.40;72.60
47414;DHT22;33163;0.000;0.000;2023-05-10T01:41:13;19.40;72.60
47414;DHT22;33163;0.000;0.000;2023-05-10T01:43:46;19.40;72.50
47414;DHT22;33163;0.000;0.000;2023-05-10T01:46:17;19.40;72.50
47414;DHT22;33163;0.000;0.000;2023-05-10T01:48:48;19.40;72.50
47414;DHT22;33163;0.000;0.000;2023-05-10T01:51:23;19.40;72.50
47414;DHT22;33163;0.000;0.000;2023-05-10T01:53:53;19.40;72.50
47414;DHT22;33163;0.000;0.000;2023-05-10T01:56:23;19.40;72.50
47414;DHT22;33163;0.000;0.000;2023-05-10T01:58:52;19.40;72.40
47414;DHT22;33163;0.000;0.000;2023-05-10T02:01:20;19.40;72.50
47414;DHT22;33163;0.000;0.000;2023-05-10T02:03:50;19.40;72.50
47414;DHT22;33163;0.000;0.000;2023-05-10T02:06:19;19.30;72.60
47414;DHT22;33163;0.000;0.000;2023-05-10T02:08:48;19.30;72.50
47414;DHT22;33163;0.000;0.000;2023-05-10T02:11:17;19.40;72.50
47414;DHT22;33163;0.000;0.000;2023-05-10T02:13:47;19.30;72.50
47414;DHT22;33163;0.000;0.000;2023-05-10T02:16:16;19.30;72.50
47414;DHT22;33163;0.000;0.000;2023-05-10T02:18:43;19.40;72.50
47414;DHT22;33163;0.000;0.000;2023-05-10T02:21:13;19.40;72.60
47414;DHT22;33163;0.000;0.000;2023-05-10T02:23:43;19.30;72.50
47414;DHT22;33163;0.000;0.000;2023-05-10T02:26:10;19.30;72.60
47414;DHT22;33163;0.000;0.000;2023-05-10T02:28:39;19.30;72.60
47414;DHT22;33163;0.000;0.000;2023-05-10T02:31:07;19.30;72.50
47414;DHT22;33163;0.000;0.000;2023-05-10T02:33:35;19.30;72.60
47414;DHT22;33163;0.000;0.000;2023-05-10T02:36:03;19.30;72.60
47414;DHT22;33163;0.000;0.000;2023-05-10T02:38:32;19.30;72.60
47414;DHT22;33163;0.000;0.000;2023-05-10T02:41:00;19.30;72.60
47414;DHT22;33163;0.000;0.000;2023-05-10T02:43:28;19.30;72.60
47414;DHT22;33163;0.000;0.000;2023-05-10T02:45:57;19.30;72.60
47414;DHT22;33163;0.000;0.000;2023-05-10T02:48:24;19.30;72.60
47414;DHT22;33163;0.000;0.000;2023-05-10T02:50:52;19.30;72.60
47414;DHT22;33163;0.000;0.000;2023-05-10T02:53:23;19.30;72.60
47414;DHT22;33163;0.000;0.000;2023-05-10T02:55:59;19.30;72.70
47414;DHT22;33163;0.000;0.000;2023-05-10T02:58:29;19.30;72.60
47414;DHT22;33163;0.000;0.000;2023-05-10T03:00:55;19.30;72.60
47414;DHT22;33163;0.000;0.000;2023-05-10T03:03:22;19.30;72.60
47414;DHT22;33163;0.000;0.000;2023-05-10T03:05:49;19.30;72.60
47414;DHT22;33163;0.000;0.000;2023-05-10T03:08:16;19.30;72.60
47414;DHT22;33163;0.000;0.000;2023-05-10T03:10:50;19.30;72.60
47414;DHT22;33163;0.000;0.000;2023-05-10T03:13:28;19.30;72.60
47414;DHT22;33163;0.000;0.000;2023-05-10T03:16:01;19.30;72.60
47414;DHT22;33163;0.000;0.000;2023-05-10T03:18:36;19.30;72.60
47414;DHT22;33163;0.000;0.000;2023-05-10T03:21:04;19.30;72.60
47414;DHT22;33163;0.000;0.000;2023-05-10T03:23:36;19.30;72.70
47414;DHT22;33163;0.000;0.000;2023-05-10T03:26:06;19.30;72.70
47414;DHT22;33163;0.000;0.000;2023-05-10T03:28:35;19.30;72.70
47414;DHT22;33163;0.000;0.000;2023-05-10T03:31:04;19.30;72.70
47414;DHT22;33163;0.000;0.000;2023-05-10T03:33:32;19.30;72.70
47414;DHT22;33163;0.000;0.000;2023-05-10T03:35:59;19.30;72.70
47414;DHT22;33163;0.000;0.000;2023-05-10T03:38:25;19.20;72.60
47414;DHT22;33163;0.000;0.000;2023-05-10T03:40:52;19.30;72.60
47414;DHT22;33163;0.000;0.000;2023-05-10T03:43:19;19.30;72.60
47414;DHT22;33163;0.000;0.000;2023-05-10T03:45:47;19.20;72.60
47414;DHT22;33163;0.000;0.000;2023-05-10T03:48:14;19.30;72.60
47414;DHT22;33163;0.000;0.000;2023-05-10T03:50:40;19.20;72.60
47414;DHT22;33163;0.000;0.000;2023-05-10T03:53:08;19.20;72.60
47414;DHT22;33163;0.000;0.000;2023-05-10T03:55:34;19.30;72.60
47414;DHT22;33163;0.000;0.000;2023-05-10T03:58:01;19.30;72.60
47414;DHT22;33163;0.000;0.000;2023-05-10T04:00:28;19.20;72.50
47414;DHT22;33163;0.000;0.000;2023-05-10T04:02:56;19.20;72.50
47414;DHT22;33163;0.000;0.000;2023-05-10T04:05:23;19.20;72.50
47414;DHT22;33163;0.000;0.000;2023-05-10T04:07:50;19.20;72.50
47414;DHT22;33163;0.000;0.000;2023-05-10T04:10:17;19.20;72.50
47414;DHT22;33163;0.000;0.000;2023-05-10T04:12:43;19.30;72.50
47414;DHT22;33163;0.000;0.000;2023-05-10T04:15:10;19.30;72.50
47414;DHT22;33163;0.000;0.000;2023-05-10T04:17:37;19.20;72.40
47414;DHT22;33163;0.000;0.000;2023-05-10T04:20:06;19.20;72.40
47414;DHT22;33163;0.000;0.000;2023-05-10T04:22:33;19.20;72.40
47414;DHT22;33163;0.000;0.000;2023-05-10T04:25:00;19.30;72.50
47414;DHT22;33163;0.000;0.000;2023-05-10T04:27:27;19.20;72.40
47414;DHT22;33163;0.000;0.000;2023-05-10T04:29:54;19.20;72.40
47414;DHT22;33163;0.000;0.000;2023-05-10T04:32:20;19.20;72.40
47414;DHT22;33163;0.000;0.000;2023-05-10T04:34:47;19.20;72.30
47414;DHT22;33163;0.000;0.000;2023-05-10T04:37:15;19.20;72.40
47414;DHT22;33163;0.000;0.000;2023-05-10T04:39:42;19.20;72.30
47414;DHT22;33163;0.000;0.000;2023-05-10T04:42:09;19.20;72.30
47414;DHT22;33163;0.000;0.000;2023-05-10T04:44:36;19.20;72.30
47414;DHT22;33163;0.000;0.000;2023-05-10T04:47:03;19.20;72.40
47414;DHT22;33163;0.000;0.000;2023-05-10T04:49:30;19.20;72.30
47414;DHT22;33163;0.000;0.000;2023-05-10T04:51:57;19.20;72.20
47414;DHT22;33163;0.000;0.000;2023-05-10T04:54:25;19.20;72.20
47414;DHT22;33163;0.000;0.000;2023-05-10T04:56:52;19.20;72.20
47414;DHT22;33163;0.000;0.000;2023-05-10T04:59:19;19.20;72.20
47414;DHT22;33163;0.000;0.000;2023-05-10T05:01:45;19.20;72.20
47414;DHT22;33163;0.000;0.000;2023-05-10T05:04:12;19.20;72.10
47414;DHT22;33163;0.000;0.000;2023-05-10T05:06:40;19.20;72.10
47414;DHT22;33163;0.000;0.000;2023-05-10T05:09:06;19.20;72.10
47414;DHT22;33163;0.000;0.000;2023-05-10T05:11:34;19.20;72.10
47414;DHT22;33163;0.000;0.000;2023-05-10T05:14:01;19.20;72.10
47414;DHT22;33163;0.000;0.000;2023-05-10T05:16:30;19.20;72.10
47414;DHT22;33163;0.000;0.000;2023-05-10T05:18:57;19.20;72.10
47414;DHT22;33163;0.000;0.000;2023-05-10T05:21:23;19.20;72.00
47414;DHT22;33163;0.000;0.000;2023-05-10T05:23:52;19.20;72.00
47414;DHT22;33163;0.000;0.000;2023-05-10T05:26:18;19.20;72.00
47414;DHT22;33163;0.000;0.000;2023-05-10T05:28:47;19.20;72.00
47414;DHT22;33163;0.000;0.000;2023-05-10T05:31:14;19.20;72.00
47414;DHT22;33163;0.000;0.000;2023-05-10T05:33:40;19.20;72.00
47414;DHT22;33163;0.000;0.000;2023-05-10T05:36:08;19.20;72.00
47414;DHT22;33163;0.000;0.000;2023-05-10T05:38:35;19.20;72.00
47414;DHT22;33163;0.000;0.000;2023-05-10T05:41:02;19.20;72.00
47414;DHT22;33163;0.000;0.000;2023-05-10T05:43:29;19.20;72.20
47414;DHT22;33163;0.000;0.000;2023-05-10T05:45:57;19.20;72.20
47414;DHT22;33163;0.000;0.000;2023-05-10T05:48:24;19.20;72.20
47414;DHT22;33163;0.000;0.000;2023-05-10T05:50:54;19.20;72.20
47414;DHT22;33163;0.000;0.000;2023-05-10T05:53:21;19.20;72.50
47414;DHT22;33163;0.000;0.000;2023-05-10T05:55:52;19.20;72.80
47414;DHT22;33163;0.000;0.000;2023-05-10T05:58:19;19.20;72.80
47414;DHT22;33163;0.000;0.000;2023-05-10T06:00:46;19.20;72.80
47414;DHT22;33163;0.000;0.000;2023-05-10T06:03:14;19.20;73.00
47414;DHT22;33163;0.000;0.000;2023-05-10T06:05:41;19.30;73.00
47414;DHT22;33163;0.000;0.000;2023-05-10T06:08:07;19.20;73.10
47414;DHT22;33163;0.000;0.000;2023-05-10T06:10:34;19.20;73.20
47414;DHT22;33163;0.000;0.000;2023-05-10T06:13:01;19.30;73.30
47414;DHT22;33163;0.000;0.000;2023-05-10T06:15:28;19.30;73.40
47414;DHT22;33163;0.000;0.000;2023-05-10T06:17:55;19.30;73.60
47414;DHT22;33163;0.000;0.000;2023-05-10T06:20:23;19.30;73.60
47414;DHT22;33163;0.000;0.000;2023-05-10T06:22:50;19.30;73.60
47414;DHT22;33163;0.000;0.000;2023-05-10T06:25:17;19.30;73.70
47414;DHT22;33163;0.000;0.000;2023-05-10T06:27:44;19.30;73.70
47414;DHT22;33163;0.000;0.000;2023-05-10T06:30:11;19.30;73.70
47414;DHT22;33163;0.000;0.000;2023-05-10T06:32:40;19.30;73.90
47414;DHT22;33163;0.000;0.000;2023-05-10T06:35:09;19.30;73.80
47414;DHT22;33163;0.000;0.000;2023-05-10T06:37:37;19.30;73.90
47414;DHT22;33163;0.000;0.000;2023-05-10T06:40:05;19.30;73.90
47414;DHT22;33163;0.000;0.000;2023-05-10T06:42:32;19.30;74.50
47414;DHT22;33163;0.000;0.000;2023-05-10T06:44:59;19.30;73.80
47414;DHT22;33163;0.000;0.000;2023-05-10T06:47:26;19.30;73.80
47414;DHT22;33163;0.000;0.000;2023-05-10T06:49:53;19.30;73.80
47414;DHT22;33163;0.000;0.000;2023-05-10T06:52:20;19.30;73.80
47414;DHT22;33163;0.000;0.000;2023-05-10T06:54:48;19.30;73.80
47414;DHT22;33163;0.000;0.000;2023-05-10T06:57:15;19.30;73.70
47414;DHT22;33163;0.000;0.000;2023-05-10T06:59:41;19.30;73.80
47414;DHT22;33163;0.000;0.000;2023-05-10T07:02:08;19.30;73.80
47414;DHT22;33163;0.000;0.000;2023-05-10T07:04:35;19.30;73.80
47414;DHT22;33163;0.000;0.000;2023-05-10T07:07:02;19.30;73.80
47414;DHT22;33163;0.000;0.000;2023-05-10T07:09:28;19.30;73.80
47414;DHT22;33163;0.000;0.000;2023-05-10T07:11:56;19.30;73.80
47414;DHT22;33163;0.000;0.000;2023-05-10T07:14:23;19.30;73.80
47414;DHT22;33163;0.000;0.000;2023-05-10T07:16:50;19.30;73.80
47414;DHT22;33163;0.000;0.000;2023-05-10T07:19:17;19.30;73.80
47414;DHT22;33163;0.000;0.000;2023-05-10T07:21:44;19.30;73.80
47414;DHT22;33163;0.000;0.000;2023-05-10T07:24:10;19.30;73.80
47414;DHT22;33163;0.000;0.000;2023-05-10T07:26:37;19.30;73.80
47414;DHT22;33163;0.000;0.000;2023-05-10T07:29:05;19.30;73.80
47414;DHT22;33163;0.000;0.000;2023-05-10T07:31:32;19.30;73.80
47414;DHT22;33163;0.000;0.000;2023-05-10T07:33:59;19.30;73.80
47414;DHT22;33163;0.000;0.000;2023-05-10T07:36:25;19.30;73.80
47414;DHT22;33163;0.000;0.000;2023-05-10T07:38:53;19.30;73.80
47414;DHT22;33163;0.000;0.000;2023-05-10T07:41:20;19.30;73.80
47414;DHT22;33163;0.000;0.000;2023-05-10T07:43:47;19.30;73.80
47414;DHT22;33163;0.000;0.000;2023-05-10T07:46:16;19.30;73.70
47414;DHT22;33163;0.000;0.000;2023-05-10T07:48:42;19.30;73.70
47414;DHT22;33163;0.000;0.000;2023-05-10T07:51:09;19.30;73.70
47414;DHT22;33163;0.000;0.000;2023-05-10T07:53:36;19.30;73.80
47414;DHT22;33163;0.000;0.000;2023-05-10T07:56:21;19.30;73.80
47414;DHT22;33163;0.000;0.000;2023-05-10T07:58:48;19.30;73.70
47414;DHT22;33163;0.000;0.000;2023-05-10T08:01:16;19.30;73.70
47414;DHT22;33163;0.000;0.000;2023-05-10T08:03:43;19.30;73.90
47414;DHT22;33163;0.000;0.000;2023-05-10T08:06:10;19.30;73.80
47414;DHT22;33163;0.000;0.000;2023-05-10T08:08:37;19.30;73.70
47414;DHT22;33163;0.000;0.000;2023-05-10T08:11:04;19.30;73.80
47414;DHT22;33163;0.000;0.000;2023-05-10T08:13:31;19.30;73.90
47414;DHT22;33163;0.000;0.000;2023-05-10T08:15:58;19.30;73.80
47414;DHT22;33163;0.000;0.000;2023-05-10T08:18:26;19.30;73.80
47414;DHT22;33163;0.000;0.000;2023-05-10T08:20:52;19.30;73.80
47414;DHT22;33163;0.000;0.000;2023-05-10T08:23:19;19.30;73.80
47414;DHT22;33163;0.000;0.000;2023-05-10T08:25:46;19.30;73.80
47414;DHT22;33163;0.000;0.000;2023-05-10T08:28:13;19.30;73.70
47414;DHT22;33163;0.000;0.000;2023-05-10T08:30:40;19.40;73.80
47414;DHT22;33163;0.000;0.000;2023-05-10T08:33:06;19.40;73.90
47414;DHT22;33163;0.000;0.000;2023-05-10T08:35:35;19.40;73.80
47414;DHT22;33163;0.000;0.000;2023-05-10T08:38:01;19.30;73.80
47414;DHT22;33163;0.000;0.000;2023-05-10T08:40:28;19.40;73.90
47414;DHT22;33163;0.000;0.000;2023-05-10T08:42:58;19.40;73.90
47414;DHT22;33163;0.000;0.000;2023-05-10T08:45:27;19.40;74.00
47414;DHT22;33163;0.000;0.000;2023-05-10T08:47:59;19.40;74.00
47414;DHT22;33163;0.000;0.000;2023-05-10T08:50:27;19.40;74.00
47414;DHT22;33163;0.000;0.000;2023-05-10T08:52:59;19.30;74.00
47414;DHT22;33163;0.000;0.000;2023-05-10T08:55:27;19.40;74.00
47414;DHT22;33163;0.000;0.000;2023-05-10T08:57:54;19.40;74.00
47414;DHT22;33163;0.000;0.000;2023-05-10T09:00:21;19.40;74.00
47414;DHT22;33163;0.000;0.000;2023-05-10T09:02:49;19.40;74.00
47414;DHT22;33163;0.000;0.000;2023-05-10T09:05:16;19.40;74.00
47414;DHT22;33163;0.000;0.000;2023-05-10T09:07:43;19.40;74.00
47414;DHT22;33163;0.000;0.000;2023-05-10T09:10:13;19.40;74.00
47414;DHT22;33163;0.000;0.000;2023-05-10T09:12:41;19.40;74.00
47414;DHT22;33163;0.000;0.000;2023-05-10T09:15:10;19.40;74.10
47414;DHT22;33163;0.000;0.000;2023-05-10T09:17:38;19.40;74.70
47414;DHT22;33163;0.000;0.000;2023-05-10T09:20:06;19.40;74.00
47414;DHT22;33163;0.000;0.000;2023-05-10T09:22:33;19.40;74.00
47414;DHT22;33163;0.000;0.000;2023-05-10T09:25:05;19.40;74.00
47414;DHT22;33163;0.000;0.000;2023-05-10T09:27:33;19.40;74.00
47414;DHT22;33163;0.000;0.000;2023-05-10T09:30:00;19.40;73.90
47414;DHT22;33163;0.000;0.000;2023-05-10T09:32:36;19.40;74.00
47414;DHT22;33163;0.000;0.000;2023-05-10T09:35:07;19.40;74.00
47414;DHT22;33163;0.000;0.000;2023-05-10T09:37:34;19.40;74.00
47414;DHT22;33163;0.000;0.000;2023-05-10T09:40:05;19.40;74.10
47414;DHT22;33163;0.000;0.000;2023-05-10T09:42:35;19.40;74.00
47414;DHT22;33163;0.000;0.000;2023-05-10T09:45:03;19.40;73.90
47414;DHT22;33163;0.000;0.000;2023-05-10T09:47:32;19.40;73.90
47414;DHT22;33163;0.000;0.000;2023-05-10T09:49:59;19.50;74.70
47414;DHT22;33163;0.000;0.000;2023-05-10T09:52:29;19.50;74.00
47414;DHT22;33163;0.000;0.000;2023-05-10T09:54:56;19.50;74.00
47414;DHT22;33163;0.000;0.000;2023-05-10T09:57:24;19.50;74.00
47414;DHT22;33163;0.000;0.000;2023-05-10T09:59:52;19.50;74.00
47414;DHT22;33163;0.000;0.000;2023-05-10T10:02:20;19.50;73.90
47414;DHT22;33163;0.000;0.000;2023-05-10T10:04:49;19.50;73.90
47414;DHT22;33163;0.000;0.000;2023-05-10T10:07:22;19.50;74.00
47414;DHT22;33163;0.000;0.000;2023-05-10T10:09:51;19.50;74.00
47414;DHT22;33163;0.000;0.000;2023-05-10T10:12:18;19.50;74.00
47414;DHT22;33163;0.000;0.000;2023-05-10T10:14:46;19.50;74.00
47414;DHT22;33163;0.000;0.000;2023-05-10T10:17:14;19.50;74.00
47414;DHT22;33163;0.000;0.000;2023-05-10T10:19:41;19.50;74.10
47414;DHT22;33163;0.000;0.000;2023-05-10T10:22:09;19.50;74.10
47414;DHT22;33163;0.000;0.000;2023-05-10T10:24:37;19.50;74.00
47414;DHT22;33163;0.000;0.000;2023-05-10T10:27:12;19.50;74.10
47414;DHT22;33163;0.000;0.000;2023-05-10T10:29:49;19.50;74.10
47414;DHT22;33163;0.000;0.000;2023-05-10T10:32:25;19.50;74.10
47414;DHT22;33163;0.000;0.000;2023-05-10T10:34:54;19.50;74.10
47414;DHT22;33163;0.000;0.000;2023-05-10T10:37:22;19.50;74.10
47414;DHT22;33163;0.000;0.000;2023-05-10T10:39:49;19.50;74.10
47414;DHT22;33163;0.000;0.000;2023-05-10T10:42:43;19.50;74.10
47414;DHT22;33163;0.000;0.000;2023-05-10T10:45:13;19.40;74.10
47414;DHT22;33163;0.000;0.000;2023-05-10T10:47:41;19.50;74.10
47414;DHT22;33163;0.000;0.000;2023-05-10T10:50:09;19.50;74.10
47414;DHT22;33163;0.000;0.000;2023-05-10T10:52:38;19.50;74.00
47414;DHT22;33163;0.000;0.000;2023-05-10T10:55:07;19.50;74.00
47414;DHT22;33163;0.000;0.000;2023-05-10T10:57:44;19.60;73.90
47414;DHT22;33163;0.000;0.000;2023-05-10T11:00:22;19.50;73.90
47414;DHT22;33163;0.000;0.000;2023-05-10T11:02:52;19.50;73.90
47414;DHT22;33163;0.000;0.000;2023-05-10T11:05:41;19.60;73.80
47414;DHT22;33163;0.000;0.000;2023-05-10T11:08:13;19.60;73.80
47414;DHT22;33163;0.000;0.000;2023-05-10T11:10:48;19.60;73.80
47414;DHT22;33163;0.000;0.000;2023-05-10T11:13:15;19.60;73.70
47414;DHT22;33163;0.000;0.000;2023-05-10T11:15:48;19.60;73.90
47414;DHT22;33163;0.000;0.000;2023-05-10T11:18:22;19.60;74.00
47414;DHT22;33163;0.000;0.000;2023-05-10T11:20:56;19.60;74.30
47414;DHT22;33163;0.000;0.000;2023-05-10T11:23:30;19.70;74.30
47414;DHT22;33163;0.000;0.000;2023-05-10T11:25:58;19.60;74.30
47414;DHT22;33163;0.000;0.000;2023-05-10T11:28:26;19.70;74.30
47414;DHT22;33163;0.000;0.000;2023-05-10T11:30:53;19.70;74.40
47414;DHT22;33163;0.000;0.000;2023-05-10T11:33:22;19.70;74.30
47414;DHT22;33163;0.000;0.000;2023-05-10T11:35:49;19.70;74.30
47414;DHT22;33163;0.000;0.000;2023-05-10T11:38:15;19.70;74.30
47414;DHT22;33163;0.000;0.000;2023-05-10T11:40:43;19.70;74.20
47414;DHT22;33163;0.000;0.000;2023-05-10T11:43:10;19.70;74.20
47414;DHT22;33163;0.000;0.000;2023-05-10T11:45:37;19.70;74.20
47414;DHT22;33163;0.000;0.000;2023-05-10T11:48:04;19.70;74.20
47414;DHT22;33163;0.000;0.000;2023-05-10T11:50:32;19.70;74.10
47414;DHT22;33163;0.000;0.000;2023-05-10T11:52:59;19.70;74.00
47414;DHT22;33163;0.000;0.000;2023-05-10T11:55:26;19.70;74.00
47414;DHT22;33163;0.000;0.000;2023-05-10T11:57:53;19.70;74.10
47414;DHT22;33163;0.000;0.000;2023-05-10T12:00:20;19.70;74.10
47414;DHT22;33163;0.000;0.000;2023-05-10T12:02:47;19.70;74.00
47414;DHT22;33163;0.000;0.000;2023-05-10T12:05:14;19.70;74.10
47414;DHT22;33163;0.000;0.000;2023-05-10T12:07:42;19.70;74.00
47414;DHT22;33163;0.000;0.000;2023-05-10T12:10:10;19.70;74.00
47414;DHT22;33163;0.000;0.000;2023-05-10T12:12:40;19.70;73.90
47414;DHT22;33163;0.000;0.000;2023-05-10T12:15:11;19.70;73.90
47414;DHT22;33163;0.000;0.000;2023-05-10T12:17:38;19.60;73.90
47414;DHT22;33163;0.000;0.000;2023-05-10T12:20:16;19.60;73.90
47414;DHT22;33163;0.000;0.000;2023-05-10T12:22:49;19.60;73.90
47414;DHT22;33163;0.000;0.000;2023-05-10T12:25:17;19.60;73.90
47414;DHT22;33163;0.000;0.000;2023-05-10T12:27:51;19.60;73.90
47414;DHT22;33163;0.000;0.000;2023-05-10T12:30:22;19.70;74.00
47414;DHT22;33163;0.000;0.000;2023-05-10T12:32:49;19.70;74.00
47414;DHT22;33163;0.000;0.000;2023-05-10T12:35:18;19.70;74.00
47414;DHT22;33163;0.000;0.000;2023-05-10T12:37:48;19.70;73.90
47414;DHT22;33163;0.000;0.000;2023-05-10T12:40:15;19.70;73.90
47414;DHT22;33163;0.000;0.000;2023-05-10T12:42:42;19.70;73.90
47414;DHT22;33163;0.000;0.000;2023-05-10T12:45:10;19.70;73.80
47414;DHT22;33163;0.000;0.000;2023-05-10T12:47:38;19.70;73.80
47414;DHT22;33163;0.000;0.000;2023-05-10T12:50:05;19.70;73.70
47414;DHT22;33163;0.000;0.000;2023-05-10T12:52:32;19.70;73.70
47414;DHT22;33163;0.000;0.000;2023-05-10T12:55:00;19.70;73.70
47414;DHT22;33163;0.000;0.000;2023-05-10T12:57:28;19.70;73.70
47414;DHT22;33163;0.000;0.000;2023-05-10T12:59:56;19.80;73.70
47414;DHT22;33163;0.000;0.000;2023-05-10T13:02:22;19.70;73.60
47414;DHT22;33163;0.000;0.000;2023-05-10T13:04:50;19.80;73.70
47414;DHT22;33163;0.000;0.000;2023-05-10T13:07:16;19.80;73.60
47414;DHT22;33163;0.000;0.000;2023-05-10T13:09:43;19.70;73.60
47414;DHT22;33163;0.000;0.000;2023-05-10T13:12:11;19.70;73.60
47414;DHT22;33163;0.000;0.000;2023-05-10T13:14:38;19.70;73.60
47414;DHT22;33163;0.000;0.000;2023-05-10T13:17:06;19.70;73.60
47414;DHT22;33163;0.000;0.000;2023-05-10T13:19:33;19.70;73.60
47414;DHT22;33163;0.000;0.000;2023-05-10T13:22:00;19.70;73.50
47414;DHT22;33163;0.000;0.000;2023-05-10T13:24:27;19.70;73.50
47414;DHT22;33163;0.000;0.000;2023-05-10T13:26:54;19.80;73.60
47414;DHT22;33163;0.000;0.000;2023-05-10T13:29:22;19.70;73.40
47414;DHT22;33163;0.000;0.000;2023-05-10T13:31:49;19.80;73.40
47414;DHT22;33163;0.000;0.000;2023-05-10T13:34:15;19.80;73.40
47414;DHT22;33163;0.000;0.000;2023-05-10T13:36:46;19.70;73.30
47414;DHT22;33163;0.000;0.000;2023-05-10T13:39:12;19.70;73.40
47414;DHT22;33163;0.000;0.000;2023-05-10T13:41:39;19.70;73.40
47414;DHT22;33163;0.000;0.000;2023-05-10T13:44:06;19.70;73.30
47414;DHT22;33163;0.000;0.000;2023-05-10T13:46:34;19.70;73.30
47414;DHT22;33163;0.000;0.000;2023-05-10T13:49:01;19.70;73.90
47414;DHT22;33163;0.000;0.000;2023-05-10T13:51:28;19.70;73.30
47414;DHT22;33163;0.000;0.000;2023-05-10T13:53:57;19.70;73.30
47414;DHT22;33163;0.000;0.000;2023-05-10T13:56:23;19.70;73.20
47414;DHT22;33163;0.000;0.000;2023-05-10T13:58:50;19.70;73.20
47414;DHT22;33163;0.000;0.000;2023-05-10T14:01:17;19.80;73.30
47414;DHT22;33163;0.000;0.000;2023-05-10T14:03:45;19.70;73.30
47414;DHT22;33163;0.000;0.000;2023-05-10T14:06:13;19.80;73.50
47414;DHT22;33163;0.000;0.000;2023-05-10T14:08:40;19.80;73.40
47414;DHT22;33163;0.000;0.000;2023-05-10T14:11:07;19.80;73.40
47414;DHT22;33163;0.000;0.000;2023-05-10T14:13:34;19.80;73.50
47414;DHT22;33163;0.000;0.000;2023-05-10T14:16:00;19.80;73.50
47414;DHT22;33163;0.000;0.000;2023-05-10T14:18:27;19.80;73.60
47414;DHT22;33163;0.000;0.000;2023-05-10T14:20:55;19.80;73.60
47414;DHT22;33163;0.000;0.000;2023-05-10T14:23:22;19.80;73.60
47414;DHT22;33163;0.000;0.000;2023-05-10T14:25:50;19.80;73.60
47414;DHT22;33163;0.000;0.000;2023-05-10T14:28:17;19.80;73.70
47414;DHT22;33163;0.000;0.000;2023-05-10T14:30:45;19.80;73.60
47414;DHT22;33163;0.000;0.000;2023-05-10T14:33:12;19.80;73.60
47414;DHT22;33163;0.000;0.000;2023-05-10T14:35:39;19.80;73.60
47414;DHT22;33163;0.000;0.000;2023-05-10T14:38:07;19.80;73.60
47414;DHT22;33163;0.000;0.000;2023-05-10T14:40:34;19.80;73.50
47414;DHT22;33163;0.000;0.000;2023-05-10T14:43:01;19.80;73.60
47414;DHT22;33163;0.000;0.000;2023-05-10T14:45:28;19.80;74.20
47414;DHT22;33163;0.000;0.000;2023-05-10T14:47:55;19.80;73.60
47414;DHT22;33163;0.000;0.000;2023-05-10T14:50:21;19.80;73.70
47414;DHT22;33163;0.000;0.000;2023-05-10T14:52:49;19.80;73.80
47414;DHT22;33163;0.000;0.000;2023-05-10T14:55:17;19.80;73.90
47414;DHT22;33163;0.000;0.000;2023-05-10T14:57:44;19.80;73.80
47414;DHT22;33163;0.000;0.000;2023-05-10T15:00:13;19.80;73.80
47414;DHT22;33163;0.000;0.000;2023-05-10T15:02:41;19.80;73.80
47414;DHT22;33163;0.000;0.000;2023-05-10T15:05:08;19.90;73.70
47414;DHT22;33163;0.000;0.000;2023-05-10T15:07:35;19.80;73.70
47414;DHT22;33163;0.000;0.000;2023-05-10T15:10:02;19.80;73.70
47414;DHT22;33163;0.000;0.000;2023-05-10T15:12:30;19.80;73.70
47414;DHT22;33163;0.000;0.000;2023-05-10T15:14:57;19.80;73.70
47414;DHT22;33163;0.000;0.000;2023-05-10T15:17:24;19.80;73.60
47414;DHT22;33163;0.000;0.000;2023-05-10T15:19:50;19.80;73.60
47414;DHT22;33163;0.000;0.000;2023-05-10T15:22:17;19.80;73.60
47414;DHT22;33163;0.000;0.000;2023-05-10T15:24:44;19.80;73.60
47414;DHT22;33163;0.000;0.000;2023-05-10T15:27:11;19.80;73.50
47414;DHT22;33163;0.000;0.000;2023-05-10T15:29:39;19.90;73.60
47414;DHT22;33163;0.000;0.000;2023-05-10T15:32:05;19.90;73.70
47414;DHT22;33163;0.000;0.000;2023-05-10T15:34:32;19.90;73.60
47414;DHT22;33163;0.000;0.000;2023-05-10T15:36:59;19.90;73.50
47414;DHT22;33163;0.000;0.000;2023-05-10T15:39:26;19.90;73.80
47414;DHT22;33163;0.000;0.000;2023-05-10T15:41:53;19.90;74.20
47414;DHT22;33163;0.000;0.000;2023-05-10T15:44:19;19.90;74.50
47414;DHT22;33163;0.000;0.000;2023-05-10T15:46:47;20.00;75.00
47414;DHT22;33163;0.000;0.000;2023-05-10T15:49:14;20.00;75.30
47414;DHT22;33163;0.000;0.000;2023-05-10T15:51:41;20.00;75.50